createdAt,value
2018-07-12T00:00:20.500Z,12.67
2018-07-12T00:02:22.559Z,14.33
2018-07-12T00:04:24.633Z,11.03
2018-07-12T00:06:27.470Z,11.43
2018-07-12T00:08:29.633Z,16.00
2018-07-12T00:10:31.997Z,12.00
2018-07-12T00:12:34.093Z,18.03
2018-07-12T00:14:37.793Z,16.10
2018-07-12T00:16:39.844Z,16.90
2018-07-12T00:18:42.010Z,14.50
2018-07-12T00:20:44.381Z,10.80
2018-07-12T00:22:46.464Z,13.27
2018-07-12T00:24:49.319Z,19.60
2018-07-12T00:26:51.456Z,13.73
2018-07-12T00:28:53.534Z,17.73
2018-07-12T00:30:55.609Z,13.80
2018-07-12T00:32:57.762Z,14.37
2018-07-12T00:34:59.826Z,10.90
2018-07-12T00:37:01.901Z,11.80
2018-07-12T00:39:04.039Z,11.80
2018-07-12T00:41:06.124Z,9.37
2018-07-12T00:43:08.194Z,13.80
2018-07-12T00:45:11.059Z,11.13
2018-07-12T00:47:14.633Z,9.37
2018-07-12T00:49:16.798Z,10.60
2018-07-12T00:51:19.097Z,16.57
2018-07-12T00:53:21.232Z,12.43
2018-07-12T00:55:23.297Z,13.87
2018-07-12T00:57:25.407Z,15.23
2018-07-12T00:59:28.237Z,10.93
2018-07-12T01:01:30.311Z,21.77
2018-07-12T01:03:32.490Z,12.60
2018-07-12T01:05:34.625Z,15.83
2018-07-12T01:07:36.689Z,11.57
2018-07-12T01:09:38.885Z,14.43
2018-07-12T01:11:42.462Z,15.07
2018-07-12T01:13:44.513Z,13.17
2018-07-12T01:15:46.672Z,14.27
2018-07-12T01:17:48.737Z,13.57
2018-07-12T01:19:50.930Z,12.50
2018-07-12T01:21:53.988Z,14.43
2018-07-12T01:23:56.026Z,13.20
2018-07-12T01:26:01.845Z,12.87
2018-07-12T01:28:04.194Z,12.47
2018-07-12T01:30:07.022Z,12.57
2018-07-12T01:32:09.080Z,13.60
2018-07-12T01:34:11.180Z,10.50
2018-07-12T01:36:13.293Z,10.93
2018-07-12T01:38:15.358Z,12.40
2018-07-12T01:40:17.454Z,9.80
2018-07-12T01:42:19.514Z,13.47
2018-07-12T01:44:21.708Z,15.20
2018-07-12T01:46:25.299Z,20.90
2018-07-12T01:48:27.468Z,12.37
2018-07-12T01:50:29.528Z,16.50
2018-07-12T01:52:31.631Z,11.70
2018-07-12T01:54:33.688Z,16.87
2018-07-12T01:56:35.766Z,10.87
2018-07-12T01:58:37.825Z,12.93
2018-07-12T02:00:39.976Z,18.17
2018-07-12T02:02:41.983Z,13.10
2018-07-12T02:04:44.155Z,17.00
2018-07-12T02:06:46.198Z,16.30
2018-07-12T02:08:48.297Z,14.57
2018-07-12T02:10:51.121Z,12.53
2018-07-12T02:12:53.302Z,17.20
2018-07-12T02:14:55.394Z,13.50
2018-07-12T02:16:58.241Z,13.80
2018-07-12T02:19:00.327Z,14.27
2018-07-12T02:21:02.399Z,11.77
2018-07-12T02:23:04.543Z,15.83
2018-07-12T02:25:06.606Z,12.30
2018-07-12T02:27:10.173Z,13.73
2018-07-12T02:29:12.242Z,13.10
2018-07-12T02:31:14.442Z,14.13
2018-07-12T02:33:16.481Z,13.83
2018-07-12T02:35:18.733Z,12.90
2018-07-12T02:37:20.806Z,13.77
2018-07-12T02:39:22.966Z,22.13
2018-07-12T02:41:25.076Z,15.73
2018-07-12T02:43:27.909Z,13.77
2018-07-12T02:45:30.086Z,13.03
2018-07-12T02:47:32.262Z,14.40
2018-07-12T02:49:35.817Z,14.70
2018-07-12T02:51:37.883Z,16.13
2018-07-12T02:53:39.971Z,13.27
2018-07-12T02:55:42.029Z,16.00
2018-07-12T02:57:44.113Z,13.27
2018-07-12T02:59:46.245Z,11.57
2018-07-12T03:01:48.305Z,17.60
2018-07-12T03:03:50.499Z,17.30
2018-07-12T03:05:52.589Z,16.10
2018-07-12T03:07:54.655Z,15.57
2018-07-12T03:09:56.714Z,16.20
2018-07-12T03:11:58.814Z,14.32
2018-07-12T03:14:00.899Z,14.20
2018-07-12T03:16:04.495Z,12.90
2018-07-12T03:18:06.582Z,20.40
2018-07-12T03:20:09.402Z,12.80
2018-07-12T03:22:11.463Z,18.63
2018-07-12T03:24:13.544Z,15.30
2018-07-12T03:26:15.627Z,20.53
2018-07-12T03:28:17.708Z,17.83
2018-07-12T03:30:19.959Z,13.10
2018-07-12T03:32:23.516Z,18.37
2018-07-12T03:34:25.674Z,15.57
2018-07-12T03:36:27.782Z,11.07
2018-07-12T03:38:29.841Z,12.10
2018-07-12T03:40:32.691Z,13.67
2018-07-12T03:42:35.298Z,14.17
2018-07-12T03:44:37.426Z,17.10
2018-07-12T03:46:39.497Z,19.07
2018-07-12T03:48:41.688Z,13.13
2018-07-12T03:50:43.795Z,16.40
2018-07-12T03:52:45.838Z,14.13
2018-07-12T03:54:48.059Z,15.00
2018-07-12T03:56:50.106Z,15.80
2018-07-12T03:58:52.170Z,11.43
2018-07-12T04:00:54.260Z,14.87
2018-07-12T04:02:57.838Z,20.57
2018-07-12T04:05:00.001Z,14.17
2018-07-12T04:07:02.165Z,20.13
2018-07-12T04:09:04.225Z,16.47
2018-07-12T04:11:06.379Z,13.40
2018-07-12T04:13:08.542Z,14.00
2018-07-12T04:15:10.608Z,12.13
2018-07-12T04:17:12.722Z,13.90
2018-07-12T04:19:15.149Z,21.70
2018-07-12T04:21:17.233Z,13.77
2018-07-12T04:23:19.287Z,17.43
2018-07-12T04:25:21.374Z,13.73
2018-07-12T04:27:23.469Z,16.20
2018-07-12T04:29:25.611Z,16.53
2018-07-12T04:31:27.674Z,14.17
2018-07-12T04:33:30.682Z,18.60
2018-07-12T04:35:32.866Z,18.27
2018-07-12T04:37:35.053Z,19.50
2018-07-12T04:39:37.093Z,14.80
2018-07-12T04:41:39.572Z,19.93
2018-07-12T04:43:43.157Z,13.33
2018-07-12T04:45:45.254Z,13.37
2018-07-12T04:47:47.325Z,17.77
2018-07-12T04:49:50.153Z,14.23
2018-07-12T04:51:52.430Z,19.97
2018-07-12T04:53:54.514Z,13.03
2018-07-12T04:55:56.557Z,14.20
2018-07-12T04:57:58.649Z,16.03
2018-07-12T05:00:01.476Z,26.03
2018-07-12T05:02:03.555Z,17.43
2018-07-12T05:04:05.649Z,14.90
2018-07-12T05:06:08.485Z,22.13
2018-07-12T05:08:10.849Z,17.07
2018-07-12T05:10:13.056Z,17.80
2018-07-12T05:12:15.101Z,24.80
2018-07-12T05:14:18.886Z,16.47
2018-07-12T05:16:20.955Z,17.80
2018-07-12T05:18:23.021Z,16.67
2018-07-12T05:20:25.174Z,16.10
2018-07-12T05:22:27.313Z,14.20
2018-07-12T05:24:29.384Z,20.13
2018-07-12T05:26:32.002Z,24.80
2018-07-12T05:28:34.091Z,17.07
2018-07-12T05:30:37.353Z,16.83
2018-07-12T05:32:39.587Z,18.37
2018-07-12T05:34:41.742Z,18.77
2018-07-12T05:36:44.300Z,17.90
2018-07-12T05:38:46.907Z,15.97
2018-07-12T05:40:49.454Z,20.30
2018-07-12T05:42:52.007Z,15.67
2018-07-12T05:44:54.601Z,18.33
2018-07-12T05:46:57.206Z,15.00
2018-07-12T05:48:59.903Z,22.00
2018-07-12T05:51:02.454Z,15.03
2018-07-12T05:53:05.010Z,19.93
2018-07-12T05:55:08.134Z,16.25
2018-07-12T05:57:11.475Z,12.93
2018-07-12T05:59:14.041Z,13.30
2018-07-12T06:01:16.618Z,25.40
2018-07-12T06:03:19.171Z,17.03
2018-07-12T06:05:21.747Z,15.40
2018-07-12T06:07:24.298Z,15.10
2018-07-12T06:09:27.650Z,12.40
2018-07-12T06:11:30.283Z,12.83
2018-07-12T06:13:32.854Z,14.77
2018-07-12T06:15:36.205Z,14.63
2018-07-12T06:17:40.309Z,12.40
2018-07-12T06:19:42.855Z,15.13
2018-07-12T06:21:45.454Z,12.90
2018-07-12T06:23:48.013Z,15.73
2018-07-12T06:25:50.593Z,12.20
2018-07-12T06:27:53.148Z,19.33
2018-07-12T06:29:55.746Z,12.23
2018-07-12T06:31:58.345Z,18.00
2018-07-12T06:34:00.882Z,14.27
2018-07-12T06:36:03.458Z,11.23
2018-07-12T06:38:06.000Z,11.10
2018-07-12T06:40:08.619Z,12.63
2018-07-12T06:42:11.180Z,14.20
2018-07-12T06:44:13.753Z,11.00
2018-07-12T06:46:16.337Z,12.77
2018-07-12T06:48:18.886Z,13.40
2018-07-12T06:50:21.472Z,13.07
2018-07-12T06:52:24.066Z,10.73
2018-07-12T06:54:26.614Z,12.07
2018-07-12T06:56:29.182Z,21.10
2018-07-12T06:58:31.729Z,13.53
2018-07-12T07:00:34.381Z,12.73
2018-07-12T07:02:36.908Z,13.70
2018-07-12T07:04:39.472Z,12.63
2018-07-12T07:06:42.078Z,13.37
2018-07-12T07:08:44.650Z,16.93
2018-07-12T07:10:47.226Z,16.63
2018-07-12T07:12:49.765Z,12.03
2018-07-12T07:14:52.333Z,11.07
2018-07-12T07:16:54.909Z,10.50
2018-07-12T07:18:57.455Z,9.23
2018-07-12T07:21:00.026Z,18.33
2018-07-12T07:23:02.590Z,12.50
2018-07-12T07:25:05.930Z,9.53
2018-07-12T07:27:08.513Z,14.13
2018-07-12T07:29:11.061Z,7.90
2018-07-12T07:31:13.662Z,7.93
2018-07-12T07:33:16.213Z,11.17
2018-07-12T07:35:18.798Z,10.43
2018-07-12T07:37:21.378Z,11.23
2018-07-12T07:39:23.926Z,6.87
2018-07-12T07:41:26.533Z,6.90
2018-07-12T07:43:29.091Z,6.83
2018-07-12T07:45:31.666Z,16.70
2018-07-12T07:47:34.234Z,8.07
2018-07-12T07:49:36.862Z,7.80
2018-07-12T07:51:40.298Z,10.00
2018-07-12T07:53:42.849Z,8.17
2018-07-12T07:55:46.186Z,11.47
2018-07-12T07:57:49.653Z,10.07
2018-07-12T07:59:52.209Z,7.07
2018-07-12T08:01:54.798Z,9.50
2018-07-12T08:03:57.358Z,6.70
2018-07-12T08:06:01.448Z,7.90
2018-07-12T08:08:04.128Z,10.50
2018-07-12T08:10:07.442Z,13.30
2018-07-12T08:12:10.018Z,6.40
2018-07-12T08:14:12.629Z,7.33
2018-07-12T08:16:15.279Z,6.70
2018-07-12T08:18:17.782Z,7.07
2018-07-12T08:20:21.839Z,5.90
2018-07-12T08:22:24.406Z,4.70
2018-07-12T08:24:26.981Z,7.57
2018-07-12T08:26:29.540Z,8.37
2018-07-12T08:28:32.886Z,10.03
2018-07-12T08:30:35.489Z,5.80
2018-07-12T08:32:39.603Z,3.70
2018-07-12T08:34:42.918Z,5.03
2018-07-12T08:36:45.506Z,4.03
2018-07-12T08:38:48.057Z,5.13
2018-07-12T08:40:51.457Z,4.15
2018-07-12T08:42:54.061Z,4.20
2018-07-12T08:44:56.590Z,5.83
2018-07-12T08:46:59.950Z,7.67
2018-07-12T08:49:02.621Z,3.63
2018-07-12T08:51:05.195Z,6.77
2018-07-12T08:53:07.781Z,6.67
2018-07-12T08:55:10.303Z,5.20
2018-07-12T08:57:12.878Z,12.57
2018-07-12T08:59:15.510Z,4.53
2018-07-12T09:01:18.049Z,6.97
2018-07-12T09:03:20.634Z,5.33
2018-07-12T09:05:23.175Z,5.67
2018-07-12T09:07:25.747Z,6.80
2018-07-12T09:09:28.290Z,7.03
2018-07-12T09:11:31.625Z,8.80
2018-07-12T09:13:34.213Z,7.77
2018-07-12T09:15:36.857Z,7.10
2018-07-12T09:17:40.186Z,8.63
2018-07-12T09:19:42.884Z,7.03
2018-07-12T09:21:45.472Z,11.83
2018-07-12T09:23:47.985Z,5.63
2018-07-12T09:25:50.549Z,6.03
2018-07-12T09:27:55.388Z,7.67
2018-07-12T09:29:58.175Z,6.37
2018-07-12T09:32:00.991Z,4.30
2018-07-12T09:34:04.519Z,5.40
2018-07-12T09:36:07.078Z,5.10
2018-07-12T09:38:09.796Z,7.37
2018-07-12T09:40:12.479Z,3.70
2018-07-12T09:42:16.723Z,4.10
2018-07-12T09:44:20.781Z,3.13
2018-07-12T09:46:23.369Z,5.80
2018-07-12T09:48:25.941Z,6.93
2018-07-12T09:50:28.754Z,5.07
2018-07-12T09:52:31.779Z,4.10
2018-07-12T09:54:34.351Z,6.27
2018-07-12T09:56:38.051Z,4.10
2018-07-12T09:58:40.532Z,7.33
2018-07-12T10:00:43.089Z,3.77
2018-07-12T10:02:51.333Z,3.17
2018-07-12T10:04:53.889Z,4.07
2018-07-12T10:06:56.445Z,6.60
2018-07-12T10:08:59.016Z,4.43
2018-07-12T10:11:01.625Z,5.67
2018-07-12T10:13:04.498Z,5.97
2018-07-12T10:15:07.052Z,4.87
2018-07-12T10:17:10.056Z,3.90
2018-07-12T10:19:12.632Z,3.63
2018-07-12T10:21:15.324Z,3.83
2018-07-12T10:23:17.862Z,3.43
2018-07-12T10:25:20.714Z,6.00
2018-07-12T10:27:24.053Z,3.53
2018-07-12T10:29:26.942Z,3.60
2018-07-12T10:31:29.493Z,3.80
2018-07-12T10:33:32.065Z,3.80
2018-07-12T10:35:34.753Z,4.60
2018-07-12T10:37:37.306Z,5.73
2018-07-12T10:39:40.165Z,4.90
2018-07-12T10:41:42.785Z,3.90
2018-07-12T10:43:45.360Z,2.47
2018-07-12T10:45:47.911Z,3.67
2018-07-12T10:47:50.505Z,4.00
2018-07-12T10:49:53.072Z,2.93
2018-07-12T10:51:55.761Z,3.67
2018-07-12T10:53:58.328Z,3.70
2018-07-12T10:56:00.881Z,3.00
2018-07-12T10:58:03.474Z,3.53
2018-07-12T11:00:06.042Z,3.00
2018-07-12T11:02:08.631Z,3.10
2018-07-12T11:04:11.303Z,5.00
2018-07-12T11:06:13.875Z,5.03
2018-07-12T11:08:16.582Z,5.10
2018-07-12T11:10:19.126Z,2.80
2018-07-12T11:12:21.672Z,4.07
2018-07-12T11:14:24.275Z,3.30
2018-07-12T11:16:26.846Z,2.53
2018-07-12T11:18:29.397Z,3.17
2018-07-12T11:20:31.976Z,3.40
2018-07-12T11:22:34.615Z,2.80
2018-07-12T11:24:37.954Z,2.40
2018-07-12T11:26:40.529Z,3.70
2018-07-12T11:28:43.165Z,2.70
2018-07-12T11:30:45.911Z,5.67
2018-07-12T11:32:48.462Z,4.67
2018-07-12T11:34:51.022Z,3.37
2018-07-12T11:36:53.574Z,2.20
2018-07-12T11:38:56.150Z,4.90
2018-07-12T11:40:58.722Z,4.23
2018-07-12T11:43:01.280Z,3.47
2018-07-12T11:45:03.885Z,3.03
2018-07-12T11:47:06.433Z,5.50
2018-07-12T11:49:09.012Z,7.63
2018-07-12T11:51:11.646Z,2.77
2018-07-12T11:53:14.182Z,3.57
2018-07-12T11:55:16.766Z,3.23
2018-07-12T11:57:19.310Z,3.30
2018-07-12T11:59:21.942Z,3.70
2018-07-12T12:01:25.288Z,5.50
2018-07-12T12:03:27.923Z,3.90
2018-07-12T12:05:30.581Z,2.20
2018-07-12T12:07:33.258Z,15.53
2018-07-12T12:09:35.833Z,2.60
2018-07-12T12:11:39.874Z,7.80
2018-07-12T12:13:42.485Z,2.93
2018-07-12T12:15:45.531Z,4.60
2018-07-12T12:17:48.146Z,2.53
2018-07-12T12:19:50.706Z,2.57
2018-07-12T12:21:53.325Z,2.20
2018-07-12T12:23:55.858Z,2.37
2018-07-12T12:25:58.491Z,3.50
2018-07-12T12:28:01.803Z,2.77
2018-07-12T12:30:04.401Z,2.80
2018-07-12T12:32:06.956Z,2.67
2018-07-12T12:34:09.506Z,2.30
2018-07-12T12:36:12.082Z,2.80
2018-07-12T12:38:14.633Z,1.97
2018-07-12T12:40:17.985Z,2.70
2018-07-12T12:42:20.553Z,3.90
2018-07-12T12:44:23.165Z,4.40
2018-07-12T12:46:25.838Z,2.33
2018-07-12T12:48:28.515Z,2.60
2018-07-12T12:50:31.063Z,2.30
2018-07-12T12:52:33.628Z,2.43
2018-07-12T12:54:36.235Z,2.80
2018-07-12T12:56:39.629Z,2.60
2018-07-12T12:58:42.202Z,3.17
2018-07-12T13:00:46.268Z,5.30
2018-07-12T13:02:48.801Z,2.53
2018-07-12T13:04:51.377Z,3.80
2018-07-12T13:06:53.941Z,4.60
2018-07-12T13:08:56.565Z,2.53
2018-07-12T13:10:59.133Z,7.70
2018-07-12T13:13:01.684Z,2.40
2018-07-12T13:15:04.317Z,4.03
2018-07-12T13:17:06.877Z,2.20
2018-07-12T13:19:09.437Z,2.93
2018-07-12T13:21:12.002Z,3.03
2018-07-12T13:23:14.558Z,2.20
2018-07-12T13:25:17.165Z,3.50
2018-07-12T13:27:19.762Z,2.37
2018-07-12T13:29:22.306Z,2.50
2018-07-12T13:31:24.913Z,1.77
2018-07-12T13:33:28.969Z,2.53
2018-07-12T13:35:31.565Z,2.63
2018-07-12T13:37:34.137Z,2.60
2018-07-12T13:39:36.706Z,2.43
2018-07-12T13:41:39.324Z,5.00
2018-07-12T13:43:41.862Z,2.50
2018-07-12T13:45:44.467Z,2.73
2018-07-12T13:47:47.017Z,2.10
2018-07-12T13:49:49.557Z,2.20
2018-07-12T13:51:52.154Z,2.30
2018-07-12T13:53:54.712Z,3.83
2018-07-12T13:55:57.297Z,2.83
2018-07-12T13:58:00.804Z,2.13
2018-07-12T14:00:03.661Z,2.70
2018-07-12T14:02:06.386Z,2.47
2018-07-12T14:04:08.917Z,3.97
2018-07-12T14:06:11.543Z,2.23
2018-07-12T14:08:14.203Z,2.67
2018-07-12T14:10:16.752Z,3.43
2018-07-12T14:12:19.305Z,5.43
2018-07-12T14:14:21.867Z,2.70
2018-07-12T14:16:24.670Z,3.30
2018-07-12T14:18:27.222Z,10.60
2018-07-12T14:20:29.825Z,2.63
2018-07-12T14:22:32.386Z,2.23
2018-07-12T14:24:35.062Z,2.53
2018-07-12T14:26:37.657Z,5.07
2018-07-12T14:28:40.215Z,3.63
2018-07-12T14:30:42.824Z,2.47
2018-07-12T14:32:45.343Z,5.50
2018-07-12T14:34:48.658Z,5.53
2018-07-12T14:36:51.305Z,2.80
2018-07-12T14:38:53.857Z,2.00
2018-07-12T14:40:56.439Z,11.63
2018-07-12T14:42:58.980Z,4.20
2018-07-12T14:45:02.338Z,2.90
2018-07-12T14:47:05.733Z,2.20
2018-07-12T14:49:08.263Z,2.40
2018-07-12T14:51:10.826Z,4.40
2018-07-12T14:53:14.137Z,2.30
2018-07-12T14:55:16.745Z,2.30
2018-07-12T14:57:19.318Z,2.50
2018-07-12T14:59:21.881Z,3.73
2018-07-12T15:01:24.462Z,3.30
2018-07-12T15:03:27.018Z,3.10
2018-07-12T15:05:29.580Z,2.53
2018-07-12T15:07:32.149Z,2.97
2018-07-12T15:09:34.754Z,5.67
2018-07-12T15:11:37.334Z,2.73
2018-07-12T15:13:39.931Z,1.93
2018-07-12T15:15:42.479Z,2.43
2018-07-12T15:17:45.033Z,4.00
2018-07-12T15:19:47.586Z,2.93
2018-07-12T15:21:50.226Z,4.07
2018-07-12T15:23:52.815Z,5.10
2018-07-12T15:25:56.229Z,4.10
2018-07-12T15:27:58.898Z,1.83
2018-07-12T15:30:01.317Z,2.70
2018-07-12T15:32:03.913Z,2.20
2018-07-12T15:34:07.977Z,4.90
2018-07-12T15:36:10.613Z,2.20
2018-07-12T15:38:13.932Z,2.40
2018-07-12T15:40:16.480Z,2.30
2018-07-12T15:42:19.923Z,2.30
2018-07-12T15:44:22.470Z,1.93
2018-07-12T15:46:25.038Z,2.57
2018-07-12T15:48:27.675Z,2.27
2018-07-12T15:50:30.342Z,2.47
2018-07-12T15:52:32.928Z,3.50
2018-07-12T15:54:35.453Z,1.90
2018-07-12T15:56:38.034Z,1.53
2018-07-12T15:58:40.717Z,4.10
2018-07-12T16:00:43.274Z,2.67
2018-07-12T16:02:45.853Z,6.23
2018-07-12T16:04:48.413Z,2.60
2018-07-12T16:06:51.039Z,4.93
2018-07-12T16:08:53.577Z,24.77
2018-07-12T16:10:56.121Z,2.30
2018-07-12T16:12:58.690Z,6.73
2018-07-12T16:15:01.244Z,2.53
2018-07-12T16:17:04.574Z,4.70
2018-07-12T16:19:07.162Z,1.90
2018-07-12T16:21:09.709Z,6.63
2018-07-12T16:23:12.362Z,7.03
2018-07-12T16:25:14.947Z,6.30
2018-07-12T16:27:17.518Z,4.03
2018-07-12T16:29:20.101Z,3.60
2018-07-12T16:31:22.665Z,2.70
2018-07-12T16:33:25.258Z,3.80
2018-07-12T16:35:27.850Z,2.20
2018-07-12T16:37:30.427Z,3.20
2018-07-12T16:39:33.076Z,3.27
2018-07-12T16:41:35.644Z,2.40
2018-07-12T16:43:38.197Z,1.93
2018-07-12T16:45:41.555Z,2.20
2018-07-12T16:47:44.125Z,2.70
2018-07-12T16:49:46.977Z,3.33
2018-07-12T16:51:49.578Z,3.90
2018-07-12T16:53:52.125Z,3.73
2018-07-12T16:55:54.665Z,2.33
2018-07-12T16:57:57.238Z,2.20
2018-07-12T17:00:00.577Z,1.83
2018-07-12T17:02:03.253Z,3.53
2018-07-12T17:04:05.798Z,5.00
2018-07-12T17:06:08.342Z,1.90
2018-07-12T17:08:11.697Z,3.20
2018-07-12T17:10:14.305Z,2.30
2018-07-12T17:12:17.655Z,2.93
2018-07-12T17:14:20.206Z,1.70
2018-07-12T17:16:22.810Z,3.80
2018-07-12T17:18:25.382Z,5.13
2018-07-12T17:20:27.946Z,1.70
2018-07-12T17:22:30.537Z,2.17
2018-07-12T17:24:33.875Z,1.90
2018-07-12T17:26:36.434Z,2.70
2018-07-12T17:28:39.813Z,3.00
2018-07-12T17:30:42.358Z,2.70
2018-07-12T17:32:44.925Z,2.07
2018-07-12T17:34:47.536Z,6.10
2018-07-12T17:36:50.903Z,5.70
2018-07-12T17:38:53.454Z,1.87
2018-07-12T17:40:56.039Z,2.00
2018-07-12T17:42:58.718Z,2.10
2018-07-12T17:45:01.276Z,2.03
2018-07-12T17:47:03.910Z,2.93
2018-07-12T17:49:07.238Z,1.77
2018-07-12T17:51:09.793Z,1.67
2018-07-12T17:53:12.389Z,2.93
2018-07-12T17:55:14.978Z,2.00
2018-07-12T17:57:17.567Z,1.70
2018-07-12T17:59:20.117Z,6.70
2018-07-12T18:01:22.670Z,2.43
2018-07-12T18:03:25.234Z,1.80
2018-07-12T18:05:27.822Z,2.80
2018-07-12T18:07:31.135Z,1.90
2018-07-12T18:09:33.808Z,1.90
2018-07-12T18:11:36.371Z,1.83
2018-07-12T18:13:38.954Z,1.90
2018-07-12T18:15:42.317Z,1.60
2018-07-12T18:17:44.894Z,2.30
2018-07-12T18:19:47.441Z,2.13
2018-07-12T18:21:50.827Z,3.23
2018-07-12T18:23:53.360Z,2.27
2018-07-12T18:25:55.905Z,2.23
2018-07-12T18:27:58.505Z,1.83
2018-07-12T18:30:01.053Z,5.23
2018-07-12T18:32:03.614Z,2.00
2018-07-12T18:34:06.193Z,2.90
2018-07-12T18:36:08.794Z,4.50
2018-07-12T18:38:11.357Z,5.57
2018-07-12T18:40:13.906Z,1.83
2018-07-12T18:42:16.619Z,3.57
2018-07-12T18:44:19.228Z,4.10
2018-07-12T18:46:21.762Z,3.13
2018-07-12T18:48:24.340Z,3.87
2018-07-12T18:50:26.910Z,3.63
2018-07-12T18:52:29.461Z,4.70
2018-07-12T18:54:32.009Z,2.50
2018-07-12T18:56:35.322Z,2.83
2018-07-12T18:58:37.895Z,2.10
2018-07-12T19:00:40.486Z,1.97
2018-07-12T19:02:43.127Z,1.80
2018-07-12T19:04:45.714Z,3.77
2018-07-12T19:06:48.345Z,5.93
2018-07-12T19:08:50.934Z,19.90
2018-07-12T19:10:53.447Z,3.13
2018-07-12T19:12:56.018Z,5.13
2018-07-12T19:14:58.632Z,5.00
2018-07-12T19:17:01.166Z,2.20
2018-07-12T19:19:03.787Z,5.13
2018-07-12T19:21:06.356Z,6.00
2018-07-12T19:23:08.929Z,3.57
2018-07-12T19:25:11.485Z,4.37
2018-07-12T19:27:14.040Z,2.10
2018-07-12T19:29:17.093Z,3.05
2018-07-12T19:31:20.412Z,4.67
2018-07-12T19:33:23.026Z,2.50
2018-07-12T19:35:25.552Z,2.40
2018-07-12T19:37:28.157Z,2.80
2018-07-12T19:39:30.745Z,2.67
2018-07-12T19:41:33.324Z,8.30
2018-07-12T19:43:35.851Z,11.13
2018-07-12T19:45:38.458Z,2.37
2018-07-12T19:47:41.017Z,3.67
2018-07-12T19:49:43.622Z,3.30
2018-07-12T19:51:46.203Z,14.77
2018-07-12T19:53:48.780Z,2.93
2018-07-12T19:55:51.326Z,2.33
2018-07-12T19:57:53.874Z,12.90
2018-07-12T19:59:56.451Z,3.53
2018-07-12T20:01:59.050Z,3.37
2018-07-12T20:04:01.679Z,3.03
2018-07-12T20:06:04.227Z,3.80
2018-07-12T20:08:07.558Z,3.53
2018-07-12T20:10:10.149Z,8.00
2018-07-12T20:12:12.745Z,11.03
2018-07-12T20:14:15.395Z,3.60
2018-07-12T20:16:18.006Z,7.43
2018-07-12T20:18:20.553Z,4.20
2018-07-12T20:20:23.123Z,5.00
2018-07-12T20:22:25.707Z,7.53
2018-07-12T20:24:28.386Z,5.80
2018-07-12T20:26:30.946Z,3.60
2018-07-12T20:28:33.527Z,4.30
2018-07-12T20:30:36.092Z,3.60
2018-07-12T20:32:38.634Z,3.83
2018-07-12T20:34:41.237Z,4.30
2018-07-12T20:36:43.790Z,3.87
2018-07-12T20:38:46.370Z,5.93
2018-07-12T20:40:48.924Z,6.57
2018-07-12T20:42:51.478Z,3.57
2018-07-12T20:44:54.806Z,3.03
2018-07-12T20:46:57.398Z,6.30
2018-07-12T20:48:59.952Z,3.23
2018-07-12T20:51:02.505Z,3.33
2018-07-12T20:53:05.094Z,4.20
2018-07-12T20:55:07.715Z,3.93
2018-07-12T20:57:10.251Z,3.27
2018-07-12T20:59:12.924Z,5.50
2018-07-12T21:01:15.470Z,3.90
2018-07-12T21:03:18.026Z,3.77
2018-07-12T21:05:21.379Z,3.23
2018-07-12T21:07:23.934Z,6.10
2018-07-12T21:09:26.490Z,3.60
2018-07-12T21:11:29.042Z,3.60
2018-07-12T21:13:32.361Z,3.90
2018-07-12T21:15:35.184Z,3.07
2018-07-12T21:17:38.419Z,5.33
2018-07-12T21:19:41.746Z,3.67
2018-07-12T21:21:44.280Z,6.50
2018-07-12T21:23:46.855Z,13.73
2018-07-12T21:25:49.453Z,4.80
2018-07-12T21:27:52.038Z,5.43
2018-07-12T21:29:54.629Z,4.67
2018-07-12T21:31:57.858Z,5.37
2018-07-12T21:34:00.477Z,7.70
2018-07-12T21:36:03.077Z,4.63
2018-07-12T21:38:05.632Z,3.83
2018-07-12T21:40:08.184Z,7.77
2018-07-12T21:42:10.730Z,4.00
2018-07-12T21:44:13.321Z,4.90
2018-07-12T21:46:15.881Z,5.20
2018-07-12T21:48:18.476Z,4.23
2018-07-12T21:50:21.091Z,4.20
2018-07-12T21:52:23.629Z,4.17
2018-07-12T21:54:26.200Z,6.70
2018-07-12T21:56:28.779Z,4.50
2018-07-12T21:58:31.552Z,4.70
2018-07-12T22:00:34.239Z,4.78
2018-07-12T22:02:36.902Z,4.33
2018-07-12T22:04:39.525Z,4.27
2018-07-12T22:06:42.059Z,8.37
2018-07-12T22:08:44.621Z,10.07
2018-07-12T22:10:47.203Z,10.20
2018-07-12T22:12:49.812Z,5.13
2018-07-12T22:14:52.458Z,4.23
2018-07-12T22:16:55.038Z,5.63
2018-07-12T22:18:57.637Z,4.87
2018-07-12T22:21:00.180Z,4.90
2018-07-12T22:23:02.737Z,4.33
2018-07-12T22:25:05.286Z,4.07
2018-07-12T22:27:07.895Z,5.50
2018-07-12T22:29:10.441Z,5.43
2018-07-12T22:31:13.015Z,4.73
2018-07-12T22:33:15.582Z,5.07
2018-07-12T22:35:18.190Z,5.60
2018-07-12T22:37:20.850Z,5.13
2018-07-12T22:39:23.406Z,4.13
2018-07-12T22:41:26.019Z,8.80
2018-07-12T22:43:28.601Z,4.63
2018-07-12T22:45:31.145Z,4.20
2018-07-12T22:47:33.710Z,7.83
2018-07-12T22:49:36.249Z,5.07
2018-07-12T22:51:39.615Z,5.70
2018-07-12T22:53:42.201Z,8.60
2018-07-12T22:55:44.741Z,7.60
2018-07-12T22:57:47.313Z,5.80
2018-07-12T22:59:49.865Z,5.23
2018-07-12T23:01:52.458Z,4.70
2018-07-12T23:03:55.039Z,7.07
2018-07-12T23:05:57.610Z,5.10
2018-07-12T23:08:00.186Z,5.90
2018-07-12T23:10:02.762Z,8.40
2018-07-12T23:12:05.326Z,6.43
2018-07-12T23:14:07.877Z,5.30
2018-07-12T23:16:10.453Z,14.07
2018-07-12T23:18:13.046Z,5.57
2018-07-12T23:20:15.621Z,6.00
2018-07-12T23:22:18.195Z,4.80
2018-07-12T23:24:20.838Z,4.67
2018-07-12T23:26:23.393Z,5.63
2018-07-12T23:28:26.726Z,6.30
2018-07-12T23:30:29.301Z,5.33
2018-07-12T23:32:31.902Z,4.80
2018-07-12T23:34:34.553Z,6.07
2018-07-12T23:36:37.134Z,7.90
2018-07-12T23:38:39.805Z,6.80
2018-07-12T23:40:42.370Z,5.10
2018-07-12T23:42:44.933Z,5.87
2018-07-12T23:44:47.478Z,4.37
2018-07-12T23:46:50.114Z,4.97
2018-07-12T23:48:52.772Z,4.80
2018-07-12T23:50:55.317Z,4.67
2018-07-12T23:52:57.910Z,6.80
2018-07-12T23:55:00.494Z,4.83
2018-07-12T23:57:03.087Z,6.60
2018-07-12T23:59:05.661Z,5.63
